sensor_id;sensor_type;location;lat;lon;timestamp;temperature;humidity
23251;DHT22;11794;49.730;10.088;2023-03-14T00:00:57;10.00;99.90
23251;DHT22;11794;49.730;10.088;2023-03-14T00:03:23;10.10;99.90
23251;DHT22;11794;49.730;10.088;2023-03-14T00:05:48;10.00;99.90
23251;DHT22;11794;49.730;10.088;2023-03-14T00:08:14;10.00;99.90
23251;DHT22;11794;49.730;10.088;2023-03-14T00:10:39;10.00;99.90
23251;DHT22;11794;49.730;10.088;2023-03-14T00:13:05;10.00;99.90
23251;DHT22;11794;49.730;10.088;2023-03-14T00:15:33;10.00;99.90
23251;DHT22;11794;49.730;10.088;2023-03-14T00:17:58;10.10;99.90
23251;DHT22;11794;49.730;10.088;2023-03-14T00:20:24;10.10;99.90
23251;DHT22;11794;49.730;10.088;2023-03-14T00:22:50;10.10;99.90
23251;DHT22;11794;49.730;10.088;2023-03-14T00:25:15;10.10;99.90
23251;DHT22;11794;49.730;10.088;2023-03-14T00:27:41;10.10;99.90
23251;DHT22;11794;49.730;10.088;2023-03-14T00:30:07;10.20;99.90
23251;DHT22;11794;49.730;10.088;2023-03-14T00:32:33;10.20;99.90
23251;DHT22;11794;49.730;10.088;2023-03-14T00:34:59;10.20;99.90
23251;DHT22;11794;49.730;10.088;2023-03-14T00:37:26;10.20;99.90
23251;DHT22;11794;49.730;10.088;2023-03-14T00:39:51;10.20;99.90
23251;DHT22;11794;49.730;10.088;2023-03-14T00:42:17;10.20;99.90
23251;DHT22;11794;49.730;10.088;2023-03-14T00:44:42;10.30;99.90
23251;DHT22;11794;49.730;10.088;2023-03-14T00:47:08;10.30;99.90
23251;DHT22;11794;49.730;10.088;2023-03-14T00:49:34;10.20;99.90
23251;DHT22;11794;49.730;10.088;2023-03-14T00:51:59;10.20;99.90
23251;DHT22;11794;49.730;10.088;2023-03-14T00:54:25;10.20;99.90
23251;DHT22;11794;49.730;10.088;2023-03-14T00:56:50;10.20;99.90
23251;DHT22;11794;49.730;10.088;2023-03-14T00:59:16;10.20;99.90
23251;DHT22;11794;49.730;10.088;2023-03-14T01:01:42;10.20;99.90
23251;DHT22;11794;49.730;10.088;2023-03-14T01:04:08;10.20;99.90
23251;DHT22;11794;49.730;10.088;2023-03-14T01:06:33;10.20;99.90
23251;DHT22;11794;49.730;10.088;2023-03-14T01:08:59;10.10;99.90
23251;DHT22;11794;49.730;10.088;2023-03-14T01:11:28;10.10;99.90
23251;DHT22;11794;49.730;10.088;2023-03-14T01:13:54;10.20;99.90
23251;DHT22;11794;49.730;10.088;2023-03-14T01:16:21;10.20;99.90
23251;DHT22;11794;49.730;10.088;2023-03-14T01:18:47;10.20;99.90
23251;DHT22;11794;49.730;10.088;2023-03-14T01:21:17;10.20;99.90
23251;DHT22;11794;49.730;10.088;2023-03-14T01:23:43;10.20;99.90
23251;DHT22;11794;49.730;10.088;2023-03-14T01:26:13;10.20;99.90
23251;DHT22;11794;49.730;10.088;2023-03-14T01:28:39;10.10;99.90
23251;DHT22;11794;49.730;10.088;2023-03-14T01:31:07;10.10;99.90
23251;DHT22;11794;49.730;10.088;2023-03-14T01:33:33;10.10;99.90
23251;DHT22;11794;49.730;10.088;2023-03-14T01:35:59;10.10;99.90
23251;DHT22;11794;49.730;10.088;2023-03-14T01:38:28;10.20;99.90
23251;DHT22;11794;49.730;10.088;2023-03-14T01:40:53;10.30;99.90
23251;DHT22;11794;49.730;10.088;2023-03-14T01:43:19;10.30;99.90
23251;DHT22;11794;49.730;10.088;2023-03-14T01:48:37;10.30;99.90
23251;DHT22;11794;49.730;10.088;2023-03-14T01:51:06;10.30;99.90
23251;DHT22;11794;49.730;10.088;2023-03-14T01:53:33;10.20;99.90
23251;DHT22;11794;49.730;10.088;2023-03-14T01:55:59;10.20;99.90
23251;DHT22;11794;49.730;10.088;2023-03-14T01:58:27;10.20;99.90
23251;DHT22;11794;49.730;10.088;2023-03-14T02:00:56;10.20;99.90
23251;DHT22;11794;49.730;10.088;2023-03-14T02:03:23;10.20;99.90
23251;DHT22;11794;49.730;10.088;2023-03-14T02:05:50;10.20;99.90
23251;DHT22;11794;49.730;10.088;2023-03-14T02:08:20;10.20;99.90
23251;DHT22;11794;49.730;10.088;2023-03-14T02:10:50;10.20;99.90
23251;DHT22;11794;49.730;10.088;2023-03-14T02:13:17;10.10;99.90
23251;DHT22;11794;49.730;10.088;2023-03-14T02:15:43;10.10;99.90
23251;DHT22;11794;49.730;10.088;2023-03-14T02:18:10;10.10;99.90
23251;DHT22;11794;49.730;10.088;2023-03-14T02:20:49;10.10;99.90
23251;DHT22;11794;49.730;10.088;2023-03-14T02:23:29;10.10;99.90
23251;DHT22;11794;49.730;10.088;2023-03-14T02:26:02;10.10;99.90
23251;DHT22;11794;49.730;10.088;2023-03-14T02:28:29;10.10;99.90
23251;DHT22;11794;49.730;10.088;2023-03-14T02:30:55;10.10;99.90
23251;DHT22;11794;49.730;10.088;2023-03-14T02:33:21;10.00;99.90
23251;DHT22;11794;49.730;10.088;2023-03-14T02:35:59;10.00;99.90
23251;DHT22;11794;49.730;10.088;2023-03-14T02:38:35;10.00;99.90
23251;DHT22;11794;49.730;10.088;2023-03-14T02:41:03;9.90;99.90
23251;DHT22;11794;49.730;10.088;2023-03-14T02:43:28;9.90;99.90
23251;DHT22;11794;49.730;10.088;2023-03-14T02:45:54;9.90;99.90
23251;DHT22;11794;49.730;10.088;2023-03-14T02:48:21;9.90;99.90
23251;DHT22;11794;49.730;10.088;2023-03-14T02:50:48;9.90;99.90
23251;DHT22;11794;49.730;10.088;2023-03-14T02:53:19;9.90;99.90
23251;DHT22;11794;49.730;10.088;2023-03-14T02:55:49;9.90;99.90
23251;DHT22;11794;49.730;10.088;2023-03-14T02:58:15;9.90;99.90
23251;DHT22;11794;49.730;10.088;2023-03-14T03:00:41;9.90;99.90
23251;DHT22;11794;49.730;10.088;2023-03-14T03:03:06;9.90;99.90
23251;DHT22;11794;49.730;10.088;2023-03-14T03:05:32;9.90;99.90
23251;DHT22;11794;49.730;10.088;2023-03-14T03:07:58;9.90;99.90
23251;DHT22;11794;49.730;10.088;2023-03-14T03:10:24;9.90;99.90
23251;DHT22;11794;49.730;10.088;2023-03-14T03:12:50;9.90;99.90
23251;DHT22;11794;49.730;10.088;2023-03-14T03:15:16;10.00;99.90
23251;DHT22;11794;49.730;10.088;2023-03-14T03:17:42;10.00;99.90
23251;DHT22;11794;49.730;10.088;2023-03-14T03:20:08;10.00;99.90
23251;DHT22;11794;49.730;10.088;2023-03-14T03:22:35;10.00;99.90
23251;DHT22;11794;49.730;10.088;2023-03-14T03:25:00;10.00;99.90
23251;DHT22;11794;49.730;10.088;2023-03-14T03:27:26;10.00;99.90
23251;DHT22;11794;49.730;10.088;2023-03-14T03:29:51;10.00;99.90
23251;DHT22;11794;49.730;10.088;2023-03-14T03:32:17;10.10;99.90
23251;DHT22;11794;49.730;10.088;2023-03-14T03:34:42;10.00;99.90
23251;DHT22;11794;49.730;10.088;2023-03-14T03:37:08;10.10;99.90
23251;DHT22;11794;49.730;10.088;2023-03-14T03:39:33;10.10;99.90
23251;DHT22;11794;49.730;10.088;2023-03-14T03:41:59;10.10;99.90
23251;DHT22;11794;49.730;10.088;2023-03-14T03:44:24;10.10;99.90
23251;DHT22;11794;49.730;10.088;2023-03-14T03:46:50;10.10;99.90
23251;DHT22;11794;49.730;10.088;2023-03-14T03:49:15;10.10;99.90
23251;DHT22;11794;49.730;10.088;2023-03-14T03:51:41;10.10;99.90
23251;DHT22;11794;49.730;10.088;2023-03-14T03:54:07;10.10;99.90
23251;DHT22;11794;49.730;10.088;2023-03-14T03:56:32;10.10;99.90
23251;DHT22;11794;49.730;10.088;2023-03-14T03:58:58;10.10;99.90
23251;DHT22;11794;49.730;10.088;2023-03-14T04:01:23;10.10;99.90
23251;DHT22;11794;49.730;10.088;2023-03-14T04:03:49;10.00;99.90
23251;DHT22;11794;49.730;10.088;2023-03-14T04:06:14;10.00;99.90
23251;DHT22;11794;49.730;10.088;2023-03-14T04:08:40;10.10;99.90
23251;DHT22;11794;49.730;10.088;2023-03-14T04:11:06;10.00;99.90
23251;DHT22;11794;49.730;10.088;2023-03-14T04:13:32;10.10;99.90
23251;DHT22;11794;49.730;10.088;2023-03-14T04:15:58;10.10;99.90
23251;DHT22;11794;49.730;10.088;2023-03-14T04:18:23;10.10;99.90
23251;DHT22;11794;49.730;10.088;2023-03-14T04:20:53;10.10;99.90
23251;DHT22;11794;49.730;10.088;2023-03-14T04:23:19;10.00;99.90
23251;DHT22;11794;49.730;10.088;2023-03-14T04:25:45;10.10;99.90
23251;DHT22;11794;49.730;10.088;2023-03-14T04:28:10;9.90;99.90
23251;DHT22;11794;49.730;10.088;2023-03-14T04:30:36;9.90;99.90
23251;DHT22;11794;49.730;10.088;2023-03-14T04:33:02;9.90;99.90
23251;DHT22;11794;49.730;10.088;2023-03-14T04:35:29;9.90;99.90
23251;DHT22;11794;49.730;10.088;2023-03-14T04:37:55;9.90;99.90
23251;DHT22;11794;49.730;10.088;2023-03-14T04:40:20;9.90;99.90
23251;DHT22;11794;49.730;10.088;2023-03-14T04:42:46;9.90;99.90
23251;DHT22;11794;49.730;10.088;2023-03-14T04:45:11;10.00;99.90
23251;DHT22;11794;49.730;10.088;2023-03-14T04:47:37;9.90;99.90
23251;DHT22;11794;49.730;10.088;2023-03-14T04:50:03;10.00;99.90
23251;DHT22;11794;49.730;10.088;2023-03-14T04:52:29;10.00;99.90
23251;DHT22;11794;49.730;10.088;2023-03-14T04:54:54;10.00;99.90
23251;DHT22;11794;49.730;10.088;2023-03-14T04:57:20;9.90;99.90
23251;DHT22;11794;49.730;10.088;2023-03-14T04:59:45;10.00;99.90
23251;DHT22;11794;49.730;10.088;2023-03-14T05:02:11;9.90;99.90
23251;DHT22;11794;49.730;10.088;2023-03-14T05:04:36;10.00;99.90
23251;DHT22;11794;49.730;10.088;2023-03-14T05:07:02;9.90;99.90
23251;DHT22;11794;49.730;10.088;2023-03-14T05:09:28;10.00;99.90
23251;DHT22;11794;49.730;10.088;2023-03-14T05:11:53;10.00;99.90
23251;DHT22;11794;49.730;10.088;2023-03-14T05:14:18;9.90;99.90
23251;DHT22;11794;49.730;10.088;2023-03-14T05:16:44;10.00;99.90
23251;DHT22;11794;49.730;10.088;2023-03-14T05:19:10;10.00;99.90
23251;DHT22;11794;49.730;10.088;2023-03-14T05:21:36;10.00;99.90
23251;DHT22;11794;49.730;10.088;2023-03-14T05:24:02;10.00;99.90
23251;DHT22;11794;49.730;10.088;2023-03-14T05:26:28;9.90;99.90
23251;DHT22;11794;49.730;10.088;2023-03-14T05:28:53;9.90;99.90
23251;DHT22;11794;49.730;10.088;2023-03-14T05:31:20;9.90;99.90
23251;DHT22;11794;49.730;10.088;2023-03-14T05:33:45;9.90;99.90
23251;DHT22;11794;49.730;10.088;2023-03-14T05:36:11;9.80;99.90
23251;DHT22;11794;49.730;10.088;2023-03-14T05:38:37;9.80;99.90
23251;DHT22;11794;49.730;10.088;2023-03-14T05:41:02;9.80;99.90
23251;DHT22;11794;49.730;10.088;2023-03-14T05:43:28;9.70;99.90
23251;DHT22;11794;49.730;10.088;2023-03-14T05:45:53;9.70;99.90
23251;DHT22;11794;49.730;10.088;2023-03-14T05:48:19;9.70;99.90
23251;DHT22;11794;49.730;10.088;2023-03-14T05:50:47;9.70;99.90
23251;DHT22;11794;49.730;10.088;2023-03-14T05:53:12;9.80;99.90
23251;DHT22;11794;49.730;10.088;2023-03-14T05:55:39;9.80;99.90
23251;DHT22;11794;49.730;10.088;2023-03-14T05:58:04;9.80;99.90
23251;DHT22;11794;49.730;10.088;2023-03-14T06:00:30;9.70;99.90
23251;DHT22;11794;49.730;10.088;2023-03-14T06:02:55;9.70;99.90
23251;DHT22;11794;49.730;10.088;2023-03-14T06:05:21;9.70;99.90
23251;DHT22;11794;49.730;10.088;2023-03-14T06:07:46;9.60;99.90
23251;DHT22;11794;49.730;10.088;2023-03-14T06:10:12;9.60;99.90
23251;DHT22;11794;49.730;10.088;2023-03-14T06:12:37;9.60;99.90
23251;DHT22;11794;49.730;10.088;2023-03-14T06:15:03;9.50;99.90
23251;DHT22;11794;49.730;10.088;2023-03-14T06:17:29;9.50;99.90
23251;DHT22;11794;49.730;10.088;2023-03-14T06:19:55;9.50;99.90
23251;DHT22;11794;49.730;10.088;2023-03-14T06:22:20;9.40;99.90
23251;DHT22;11794;49.730;10.088;2023-03-14T06:24:46;9.50;99.90
23251;DHT22;11794;49.730;10.088;2023-03-14T06:27:11;9.50;99.90
23251;DHT22;11794;49.730;10.088;2023-03-14T06:29:37;9.40;99.90
23251;DHT22;11794;49.730;10.088;2023-03-14T06:32:02;9.40;99.90
23251;DHT22;11794;49.730;10.088;2023-03-14T06:34:28;9.50;99.90
23251;DHT22;11794;49.730;10.088;2023-03-14T06:36:53;9.50;99.90
23251;DHT22;11794;49.730;10.088;2023-03-14T06:39:19;9.50;99.90
23251;DHT22;11794;49.730;10.088;2023-03-14T06:41:44;9.60;99.90
23251;DHT22;11794;49.730;10.088;2023-03-14T06:44:10;9.60;99.90
23251;DHT22;11794;49.730;10.088;2023-03-14T06:46:35;9.70;99.90
23251;DHT22;11794;49.730;10.088;2023-03-14T06:49:01;9.70;99.90
23251;DHT22;11794;49.730;10.088;2023-03-14T06:51:26;9.70;99.90
23251;DHT22;11794;49.730;10.088;2023-03-14T06:53:52;9.80;99.90
23251;DHT22;11794;49.730;10.088;2023-03-14T06:56:17;9.80;99.90
23251;DHT22;11794;49.730;10.088;2023-03-14T06:58:43;9.80;99.90
23251;DHT22;11794;49.730;10.088;2023-03-14T07:01:27;9.80;99.90
23251;DHT22;11794;49.730;10.088;2023-03-14T07:03:53;9.90;99.90
23251;DHT22;11794;49.730;10.088;2023-03-14T07:06:19;9.90;99.90
23251;DHT22;11794;49.730;10.088;2023-03-14T07:08:45;9.80;99.90
23251;DHT22;11794;49.730;10.088;2023-03-14T07:11:11;9.80;99.90
23251;DHT22;11794;49.730;10.088;2023-03-14T07:13:38;9.80;99.90
23251;DHT22;11794;49.730;10.088;2023-03-14T07:16:04;9.90;99.90
23251;DHT22;11794;49.730;10.088;2023-03-14T07:18:29;10.00;99.90
23251;DHT22;11794;49.730;10.088;2023-03-14T07:20:55;10.10;99.90
23251;DHT22;11794;49.730;10.088;2023-03-14T07:23:20;10.20;99.90
23251;DHT22;11794;49.730;10.088;2023-03-14T07:25:46;10.30;99.90
23251;DHT22;11794;49.730;10.088;2023-03-14T07:28:11;10.30;99.90
23251;DHT22;11794;49.730;10.088;2023-03-14T07:30:37;10.30;99.90
23251;DHT22;11794;49.730;10.088;2023-03-14T07:33:03;10.30;99.90
23251;DHT22;11794;49.730;10.088;2023-03-14T07:35:28;10.30;99.90
23251;DHT22;11794;49.730;10.088;2023-03-14T07:37:54;10.20;99.90
23251;DHT22;11794;49.730;10.088;2023-03-14T07:40:19;10.30;99.90
23251;DHT22;11794;49.730;10.088;2023-03-14T07:42:45;10.30;99.90
23251;DHT22;11794;49.730;10.088;2023-03-14T07:45:11;10.30;99.90
23251;DHT22;11794;49.730;10.088;2023-03-14T07:47:36;10.20;99.90
23251;DHT22;11794;49.730;10.088;2023-03-14T07:50:03;10.20;99.90
23251;DHT22;11794;49.730;10.088;2023-03-14T07:52:29;10.20;99.90
23251;DHT22;11794;49.730;10.088;2023-03-14T07:54:54;10.20;99.90
23251;DHT22;11794;49.730;10.088;2023-03-14T07:57:20;10.30;99.90
23251;DHT22;11794;49.730;10.088;2023-03-14T07:59:46;10.30;99.90
23251;DHT22;11794;49.730;10.088;2023-03-14T08:02:12;10.30;99.90
23251;DHT22;11794;49.730;10.088;2023-03-14T08:04:39;10.30;99.90
23251;DHT22;11794;49.730;10.088;2023-03-14T08:07:05;10.40;99.90
23251;DHT22;11794;49.730;10.088;2023-03-14T08:09:30;10.40;99.90
23251;DHT22;11794;49.730;10.088;2023-03-14T08:11:56;10.40;99.90
23251;DHT22;11794;49.730;10.088;2023-03-14T08:14:21;10.40;99.90
23251;DHT22;11794;49.730;10.088;2023-03-14T08:16:49;10.40;99.90
23251;DHT22;11794;49.730;10.088;2023-03-14T08:19:15;10.50;99.90
23251;DHT22;11794;49.730;10.088;2023-03-14T08:21:40;10.60;99.90
23251;DHT22;11794;49.730;10.088;2023-03-14T08:24:06;10.70;99.90
23251;DHT22;11794;49.730;10.088;2023-03-14T08:26:32;10.90;99.90
23251;DHT22;11794;49.730;10.088;2023-03-14T08:28:57;11.10;99.90
23251;DHT22;11794;49.730;10.088;2023-03-14T08:31:23;11.40;99.90
23251;DHT22;11794;49.730;10.088;2023-03-14T08:33:48;11.90;99.90
23251;DHT22;11794;49.730;10.088;2023-03-14T08:36:14;11.80;99.90
23251;DHT22;11794;49.730;10.088;2023-03-14T08:38:40;11.70;99.90
23251;DHT22;11794;49.730;10.088;2023-03-14T08:41:08;11.50;99.90
23251;DHT22;11794;49.730;10.088;2023-03-14T08:43:33;11.50;99.90
23251;DHT22;11794;49.730;10.088;2023-03-14T08:46:00;11.30;99.90
23251;DHT22;11794;49.730;10.088;2023-03-14T08:48:26;11.20;99.90
23251;DHT22;11794;49.730;10.088;2023-03-14T08:50:52;11.20;99.90
23251;DHT22;11794;49.730;10.088;2023-03-14T08:53:18;11.50;99.90
23251;DHT22;11794;49.730;10.088;2023-03-14T08:55:46;11.70;99.90
23251;DHT22;11794;49.730;10.088;2023-03-14T08:58:11;12.00;99.90
23251;DHT22;11794;49.730;10.088;2023-03-14T09:00:37;12.00;99.90
23251;DHT22;11794;49.730;10.088;2023-03-14T09:03:02;11.90;99.90
23251;DHT22;11794;49.730;10.088;2023-03-14T09:05:28;11.80;99.90
23251;DHT22;11794;49.730;10.088;2023-03-14T09:07:53;12.00;99.90
23251;DHT22;11794;49.730;10.088;2023-03-14T09:10:19;12.90;99.90
23251;DHT22;11794;49.730;10.088;2023-03-14T09:12:45;13.70;99.90
23251;DHT22;11794;49.730;10.088;2023-03-14T09:15:10;14.50;99.90
23251;DHT22;11794;49.730;10.088;2023-03-14T09:17:36;14.80;99.90
23251;DHT22;11794;49.730;10.088;2023-03-14T09:20:04;14.20;99.90
23251;DHT22;11794;49.730;10.088;2023-03-14T09:22:34;13.50;99.90
23251;DHT22;11794;49.730;10.088;2023-03-14T09:25:01;13.30;99.90
23251;DHT22;11794;49.730;10.088;2023-03-14T09:27:27;13.20;99.90
23251;DHT22;11794;49.730;10.088;2023-03-14T09:29:52;13.00;99.90
23251;DHT22;11794;49.730;10.088;2023-03-14T09:32:18;12.90;99.90
23251;DHT22;11794;49.730;10.088;2023-03-14T09:34:44;12.70;99.90
23251;DHT22;11794;49.730;10.088;2023-03-14T09:37:09;12.60;99.90
23251;DHT22;11794;49.730;10.088;2023-03-14T09:39:35;12.50;99.90
23251;DHT22;11794;49.730;10.088;2023-03-14T09:42:03;12.30;99.90
23251;DHT22;11794;49.730;10.088;2023-03-14T09:44:32;12.20;99.90
23251;DHT22;11794;49.730;10.088;2023-03-14T09:47:01;12.00;99.90
23251;DHT22;11794;49.730;10.088;2023-03-14T09:49:30;12.00;99.90
23251;DHT22;11794;49.730;10.088;2023-03-14T09:51:58;12.00;99.90
23251;DHT22;11794;49.730;10.088;2023-03-14T09:54:36;11.80;99.90
23251;DHT22;11794;49.730;10.088;2023-03-14T09:57:05;11.90;99.90
23251;DHT22;11794;49.730;10.088;2023-03-14T09:59:31;11.90;99.90
23251;DHT22;11794;49.730;10.088;2023-03-14T10:02:22;12.00;99.90
23251;DHT22;11794;49.730;10.088;2023-03-14T10:04:50;11.90;99.90
23251;DHT22;11794;49.730;10.088;2023-03-14T10:07:20;11.90;99.90
23251;DHT22;11794;49.730;10.088;2023-03-14T10:09:50;11.90;99.90
23251;DHT22;11794;49.730;10.088;2023-03-14T10:12:17;12.00;99.90
23251;DHT22;11794;49.730;10.088;2023-03-14T10:14:51;12.10;99.90
23251;DHT22;11794;49.730;10.088;2023-03-14T10:17:19;12.30;99.90
23251;DHT22;11794;49.730;10.088;2023-03-14T10:19:54;12.40;99.90
23251;DHT22;11794;49.730;10.088;2023-03-14T10:22:21;12.30;99.90
23251;DHT22;11794;49.730;10.088;2023-03-14T10:24:54;12.30;99.90
23251;DHT22;11794;49.730;10.088;2023-03-14T10:27:28;12.20;99.90
23251;DHT22;11794;49.730;10.088;2023-03-14T10:29:59;12.30;99.90
23251;DHT22;11794;49.730;10.088;2023-03-14T10:32:33;12.20;99.90
23251;DHT22;11794;49.730;10.088;2023-03-14T10:37:56;12.80;99.90
23251;DHT22;11794;49.730;10.088;2023-03-14T10:40:37;12.40;99.90
23251;DHT22;11794;49.730;10.088;2023-03-14T10:43:06;12.30;99.90
23251;DHT22;11794;49.730;10.088;2023-03-14T10:45:40;12.50;99.90
23251;DHT22;11794;49.730;10.088;2023-03-14T10:48:20;12.50;99.90
23251;DHT22;11794;49.730;10.088;2023-03-14T10:50:56;12.50;99.90
23251;DHT22;11794;49.730;10.088;2023-03-14T10:53:23;12.70;99.90
23251;DHT22;11794;49.730;10.088;2023-03-14T10:55:49;13.20;99.90
23251;DHT22;11794;49.730;10.088;2023-03-14T10:58:28;13.70;99.90
23251;DHT22;11794;49.730;10.088;2023-03-14T11:03:31;13.90;99.90
23251;DHT22;11794;49.730;10.088;2023-03-14T11:06:14;13.80;99.90
23251;DHT22;11794;49.730;10.088;2023-03-14T11:08:57;13.40;99.90
23251;DHT22;11794;49.730;10.088;2023-03-14T11:11:27;13.90;99.90
23251;DHT22;11794;49.730;10.088;2023-03-14T11:16:38;14.60;99.90
23251;DHT22;11794;49.730;10.088;2023-03-14T11:22:14;13.70;99.90
23251;DHT22;11794;49.730;10.088;2023-03-14T11:31:08;13.30;99.90
23251;DHT22;11794;49.730;10.088;2023-03-14T11:36:38;13.40;99.90
23251;DHT22;11794;49.730;10.088;2023-03-14T11:39:16;13.40;99.90
23251;DHT22;11794;49.730;10.088;2023-03-14T11:41:45;13.60;99.90
23251;DHT22;11794;49.730;10.088;2023-03-14T11:46:51;13.50;99.90
23251;DHT22;11794;49.730;10.088;2023-03-14T11:49:24;13.90;99.90
23251;DHT22;11794;49.730;10.088;2023-03-14T11:52:05;13.80;99.90
23251;DHT22;11794;49.730;10.088;2023-03-14T11:54:55;13.20;99.90
23251;DHT22;11794;49.730;10.088;2023-03-14T11:57:23;12.70;99.90
23251;DHT22;11794;49.730;10.088;2023-03-14T11:59:53;12.40;99.90
23251;DHT22;11794;49.730;10.088;2023-03-14T12:02:35;12.30;99.90
23251;DHT22;11794;49.730;10.088;2023-03-14T12:10:30;12.60;99.90
23251;DHT22;11794;49.730;10.088;2023-03-14T12:13:01;12.70;99.90
23251;DHT22;11794;49.730;10.088;2023-03-14T12:15:27;12.60;99.90
23251;DHT22;11794;49.730;10.088;2023-03-14T12:17:56;12.40;99.90
23251;DHT22;11794;49.730;10.088;2023-03-14T12:20:24;12.10;99.90
23251;DHT22;11794;49.730;10.088;2023-03-14T12:22:55;12.00;99.90
23251;DHT22;11794;49.730;10.088;2023-03-14T12:25:26;11.80;99.90
23251;DHT22;11794;49.730;10.088;2023-03-14T12:35:51;10.60;99.90
23251;DHT22;11794;49.730;10.088;2023-03-14T12:38:37;10.40;99.90
23251;DHT22;11794;49.730;10.088;2023-03-14T12:41:25;10.30;99.90
23251;DHT22;11794;49.730;10.088;2023-03-14T12:43:52;10.30;99.90
23251;DHT22;11794;49.730;10.088;2023-03-14T12:48:53;10.20;99.90
23251;DHT22;11794;49.730;10.088;2023-03-14T12:51:27;10.10;99.90
23251;DHT22;11794;49.730;10.088;2023-03-14T12:54:25;10.10;99.90
23251;DHT22;11794;49.730;10.088;2023-03-14T12:57:23;10.00;99.90
23251;DHT22;11794;49.730;10.088;2023-03-14T12:59:52;9.90;99.90
23251;DHT22;11794;49.730;10.088;2023-03-14T13:02:29;9.90;99.90
23251;DHT22;11794;49.730;10.088;2023-03-14T13:05:05;9.90;99.90
23251;DHT22;11794;49.730;10.088;2023-03-14T13:15:33;10.00;99.90
23251;DHT22;11794;49.730;10.088;2023-03-14T13:18:07;10.00;99.90
23251;DHT22;11794;49.730;10.088;2023-03-14T13:20:37;10.10;99.90
23251;DHT22;11794;49.730;10.088;2023-03-14T13:23:04;10.10;99.90
23251;DHT22;11794;49.730;10.088;2023-03-14T13:25:34;10.10;99.90
23251;DHT22;11794;49.730;10.088;2023-03-14T13:28:01;10.10;99.90
23251;DHT22;11794;49.730;10.088;2023-03-14T13:30:29;10.00;99.90
23251;DHT22;11794;49.730;10.088;2023-03-14T13:33:03;10.10;99.90
23251;DHT22;11794;49.730;10.088;2023-03-14T13:35:37;10.00;99.90
23251;DHT22;11794;49.730;10.088;2023-03-14T13:38:03;10.00;99.90
23251;DHT22;11794;49.730;10.088;2023-03-14T13:40:33;10.00;99.90
23251;DHT22;11794;49.730;10.088;2023-03-14T13:46:03;9.80;99.90
23251;DHT22;11794;49.730;10.088;2023-03-14T13:48:31;9.40;99.90
23251;DHT22;11794;49.730;10.088;2023-03-14T13:51:17;9.10;99.90
23251;DHT22;11794;49.730;10.088;2023-03-14T13:53:54;8.90;99.90
23251;DHT22;11794;49.730;10.088;2023-03-14T13:56:21;8.70;99.90
23251;DHT22;11794;49.730;10.088;2023-03-14T13:58:48;8.70;99.90
23251;DHT22;11794;49.730;10.088;2023-03-14T14:01:20;8.70;99.90
23251;DHT22;11794;49.730;10.088;2023-03-14T14:03:50;8.60;99.90
23251;DHT22;11794;49.730;10.088;2023-03-14T14:06:26;8.50;99.90
23251;DHT22;11794;49.730;10.088;2023-03-14T14:08:54;8.40;99.90
23251;DHT22;11794;49.730;10.088;2023-03-14T14:11:32;8.40;99.90
23251;DHT22;11794;49.730;10.088;2023-03-14T14:14:00;8.40;99.90
23251;DHT22;11794;49.730;10.088;2023-03-14T14:16:28;8.40;99.90
23251;DHT22;11794;49.730;10.088;2023-03-14T14:18:56;8.40;99.90
23251;DHT22;11794;49.730;10.088;2023-03-14T14:21:22;8.40;99.90
23251;DHT22;11794;49.730;10.088;2023-03-14T14:23:48;8.40;99.90
23251;DHT22;11794;49.730;10.088;2023-03-14T14:26:16;8.50;99.90
23251;DHT22;11794;49.730;10.088;2023-03-14T14:28:43;8.40;99.90
23251;DHT22;11794;49.730;10.088;2023-03-14T14:33:42;8.30;99.90
23251;DHT22;11794;49.730;10.088;2023-03-14T14:36:16;8.30;99.90
23251;DHT22;11794;49.730;10.088;2023-03-14T14:38:51;8.20;99.90
23251;DHT22;11794;49.730;10.088;2023-03-14T14:41:17;8.20;99.90
23251;DHT22;11794;49.730;10.088;2023-03-14T14:43:43;8.00;99.90
23251;DHT22;11794;49.730;10.088;2023-03-14T14:46:09;8.10;99.90
23251;DHT22;11794;49.730;10.088;2023-03-14T14:48:38;8.00;99.90
23251;DHT22;11794;49.730;10.088;2023-03-14T14:51:06;8.10;99.90
23251;DHT22;11794;49.730;10.088;2023-03-14T14:53:40;8.10;99.90
23251;DHT22;11794;49.730;10.088;2023-03-14T14:56:18;8.20;99.90
23251;DHT22;11794;49.730;10.088;2023-03-14T14:58:46;8.20;99.90
23251;DHT22;11794;49.730;10.088;2023-03-14T15:01:14;8.30;99.90
23251;DHT22;11794;49.730;10.088;2023-03-14T15:03:43;8.30;99.90
23251;DHT22;11794;49.730;10.088;2023-03-14T15:06:11;8.20;99.90
23251;DHT22;11794;49.730;10.088;2023-03-14T15:08:37;8.20;99.90
23251;DHT22;11794;49.730;10.088;2023-03-14T15:11:02;8.10;99.90
23251;DHT22;11794;49.730;10.088;2023-03-14T15:13:28;8.00;99.90
23251;DHT22;11794;49.730;10.088;2023-03-14T15:15:53;7.70;99.90
23251;DHT22;11794;49.730;10.088;2023-03-14T15:18:24;7.50;99.90
23251;DHT22;11794;49.730;10.088;2023-03-14T15:20:50;7.30;99.90
23251;DHT22;11794;49.730;10.088;2023-03-14T15:23:19;7.10;99.90
23251;DHT22;11794;49.730;10.088;2023-03-14T15:25:44;6.90;99.90
23251;DHT22;11794;49.730;10.088;2023-03-14T15:28:21;6.90;99.90
23251;DHT22;11794;49.730;10.088;2023-03-14T15:30:52;6.80;99.90
23251;DHT22;11794;49.730;10.088;2023-03-14T15:33:18;6.80;99.90
23251;DHT22;11794;49.730;10.088;2023-03-14T15:35:44;6.90;99.90
23251;DHT22;11794;49.730;10.088;2023-03-14T15:38:14;6.90;99.90
23251;DHT22;11794;49.730;10.088;2023-03-14T15:40:40;7.00;99.90
23251;DHT22;11794;49.730;10.088;2023-03-14T15:43:06;7.10;99.90
23251;DHT22;11794;49.730;10.088;2023-03-14T15:45:32;7.20;99.90
23251;DHT22;11794;49.730;10.088;2023-03-14T15:47:57;7.20;99.90
23251;DHT22;11794;49.730;10.088;2023-03-14T15:50:23;7.30;99.90
23251;DHT22;11794;49.730;10.088;2023-03-14T15:52:50;7.40;99.90
23251;DHT22;11794;49.730;10.088;2023-03-14T15:55:16;7.40;99.90
23251;DHT22;11794;49.730;10.088;2023-03-14T15:57:43;7.40;99.90
23251;DHT22;11794;49.730;10.088;2023-03-14T16:00:15;7.50;99.90
23251;DHT22;11794;49.730;10.088;2023-03-14T16:02:41;7.50;99.90
23251;DHT22;11794;49.730;10.088;2023-03-14T16:05:10;7.50;99.90
23251;DHT22;11794;49.730;10.088;2023-03-14T16:07:36;7.60;99.90
23251;DHT22;11794;49.730;10.088;2023-03-14T16:10:02;7.60;99.90
23251;DHT22;11794;49.730;10.088;2023-03-14T16:12:28;7.60;99.90
23251;DHT22;11794;49.730;10.088;2023-03-14T16:14:54;7.60;99.90
23251;DHT22;11794;49.730;10.088;2023-03-14T16:17:19;7.60;99.90
23251;DHT22;11794;49.730;10.088;2023-03-14T16:19:45;7.60;99.90
23251;DHT22;11794;49.730;10.088;2023-03-14T16:22:10;7.60;99.90